Terminal Aerodrome Forecast
Issued by NWS Melbourne, FL

Home | Current Version | Previous Version | Text Only | Print | Product List | Glossary On
Versions: 1 2 3 4 5 6 7 8 9 10 11 12 13 14 15 16 17 18
000
FTUS42 KMLB 220539
TAFDAB
TAF
KDAB 220539Z 2206/2306 16003KT P6SM FEW070 BKN090
     FM220800 19008KT P6SM BKN035 WS015/22034KT
     FM221300 20014G24KT P6SM SCT015 BKN035
     FM222000 21018G28KT P6SM VCTS BKN035CB
      TEMPO 2221/2223 25020G40KT 2SM +TSRA
     FM230000 21015G22KT P6SM -RA VCTS BKN035CB=

USA.gov is the U.S. government's official web portal to all federal, state and local government web resources and services.